Terminal Aerodrome Forecast
Issued by NWS Jacksonville, FL

Home | Current Version | Previous Version | Text Only | Print | Product List | Glossary On
Versions: 1 2 3 4 5 6 7 8 9 10 11 12 13 14 15 16 17
153
FTUS42 KJAX 110023 AAA
TAFSSI
TAF AMD
KSSI 110023Z 1100/1124 27007KT P6SM SKC
     FM111400 30007KT P6SM SKC
     FM111800 VRB06KT P6SM SCT250=

USA.gov is the U.S. government's official web portal to all federal, state and local government web resources and services.